Time;durP1;ratioP1;P1;durP2;ratioP2;P2;SDS_P1;SDS_P2;PMS_P1;PMS_P2;Temp;Humidity;BMP_temperature;BMP_pressure;BME280_temperature;BME280_humidity;BME280_pressure;Samples;Min_cycle;Max_cycle;Signal;HPM_P1;HPM_P2
2022/07/05 00:01:33;;;;;;;;;14.67;12.00;;;;;18.38;100.00;101796.88;5027310;28;45668;-81
2022/07/05 00:03:59;;;;;;;;;7.67;5.33;;;;;18.33;100.00;101805.09;5056767;28;45464;-80
2022/07/05 00:06:25;;;;;;;;;5.67;4.33;;;;;18.28;100.00;101791.06;5048569;28;45468;-80
2022/07/05 00:08:50;;;;;;;;;3.67;2.33;;;;;18.28;100.00;101802.19;5045661;28;45542;-80
2022/07/05 00:11:16;;;;;;;;;3.33;3.33;;;;;18.24;100.00;101789.84;5083160;28;45426;-80
2022/07/05 00:13:41;;;;;;;;;3.00;2.00;;;;;18.26;100.00;101798.78;5050684;28;45708;-80
2022/07/05 00:16:07;;;;;;;;;2.67;2.00;;;;;18.05;100.00;101775.97;5043052;28;46295;-78
2022/07/05 00:18:32;;;;;;;;;15.33;12.00;;;;;18.18;100.00;101791.63;5047314;28;45380;-79
2022/07/05 00:20:59;;;;;;;;;2.00;2.00;;;;;18.17;100.00;101801.88;5055346;28;45352;-79
2022/07/05 00:23:24;;;;;;;;;4.00;4.00;;;;;18.11;100.00;101797.28;5059876;28;45332;-79
2022/07/05 00:25:49;;;;;;;;;7.33;4.67;;;;;18.10;100.00;101803.03;5071526;28;45464;-80
2022/07/05 00:28:15;;;;;;;;;8.00;7.00;;;;;18.02;100.00;101798.66;5074918;28;45319;-79
2022/07/05 00:30:41;;;;;;;;;2.33;2.33;;;;;17.86;100.00;101783.47;5043148;28;45427;-79
2022/07/05 00:33:06;;;;;;;;;6.33;3.33;;;;;17.88;100.00;101797.09;5043086;28;45555;-79
2022/07/05 00:35:32;;;;;;;;;2.67;2.67;;;;;17.87;100.00;101801.78;5045151;28;46332;-80
2022/07/05 00:37:57;;;;;;;;;3.67;3.67;;;;;17.80;100.00;101799.09;5029790;28;45324;-79
2022/07/05 00:40:23;;;;;;;;;1.33;1.33;;;;;17.70;100.00;101793.25;5055143;28;45443;-79
2022/07/05 00:42:48;;;;;;;;;4.67;4.67;;;;;17.73;100.00;101808.59;5044761;28;45423;-80
2022/07/05 00:45:14;;;;;;;;;2.00;2.00;;;;;17.67;100.00;101807.56;5056771;28;45796;-81
2022/07/05 00:47:39;;;;;;;;;8.00;6.67;;;;;17.57;100.00;101797.00;5027192;28;45660;-80
2022/07/05 00:50:05;;;;;;;;;10.67;7.67;;;;;17.51;100.00;101805.41;5061430;28;45447;-79
2022/07/05 00:52:31;;;;;;;;;5.67;5.67;;;;;17.56;100.00;101819.41;5046522;28;46932;-81
2022/07/05 00:54:56;;;;;;;;;3.67;3.67;;;;;17.50;100.00;101812.88;5058219;28;48188;-80
2022/07/05 00:57:22;;;;;;;;;13.00;12.00;;;;;17.26;100.00;101784.97;5044665;28;45482;-78
2022/07/05 00:59:50;;;;;;;;;12.00;7.67;;;;;17.33;100.00;101801.53;5040067;28;45364;-78
2022/07/05 01:02:16;;;;;;;;;7.67;5.00;;;;;17.38;100.00;101814.69;5050180;28;45318;-79
2022/07/05 01:04:42;;;;;;;;;9.67;8.00;;;;;17.37;100.00;101819.41;5050595;28;46263;-80
2022/07/05 01:07:08;;;;;;;;;4.00;4.00;;;;;17.31;100.00;101814.78;5048845;28;45530;-79
2022/07/05 01:09:34;;;;;;;;;2.00;2.00;;;;;17.27;100.00;101813.53;5043238;28;45839;-79
2022/07/05 01:12:00;;;;;;;;;7.33;7.33;;;;;17.26;100.00;101814.59;5043348;28;45975;-79
2022/07/05 01:14:25;;;;;;;;;11.00;11.00;;;;;17.23;100.00;101806.72;5047210;28;47261;-79
2022/07/05 01:16:53;;;;;;;;;6.00;6.00;;;;;17.19;100.00;101800.81;5056742;28;45435;-80
2022/07/05 01:19:20;;;;;;;;;5.00;5.00;;;;;17.17;100.00;101797.44;5055854;28;45317;-79
2022/07/05 01:21:47;;;;;;;;;10.00;7.00;;;;;17.17;100.00;101802.97;5050439;28;46267;-80
2022/07/05 01:24:15;;;;;;;;;3.00;2.00;;;;;17.14;100.00;101797.00;5026179;28;47586;-81
2022/07/05 01:26:41;;;;;;;;;4.00;4.00;;;;;17.09;100.00;101801.31;5082511;28;45430;-80
2022/07/05 01:29:08;;;;;;;;;4.67;4.00;;;;;17.08;100.00;101809.84;5083665;28;45470;-77
2022/07/05 01:31:38;;;;;;;;;6.67;3.67;;;;;16.94;100.00;101790.56;5081217;28;45432;-79
2022/07/05 01:34:04;;;;;;;;;2.00;1.00;;;;;17.03;100.00;101807.75;5045891;28;46756;-80
2022/07/05 01:36:30;;;;;;;;;3.00;2.00;;;;;17.01;100.00;101804.38;5014384;28;45333;-81
2022/07/05 01:38:55;;;;;;;;;3.33;3.00;;;;;16.98;100.00;101810.38;5042699;28;45529;-82
2022/07/05 01:41:21;;;;;;;;;3.00;2.67;;;;;16.91;100.00;101802.09;5056508;28;45451;-83
2022/07/05 01:43:47;;;;;;;;;4.00;2.67;;;;;16.81;100.00;101787.03;5042249;28;45486;-80
2022/07/05 01:46:15;;;;;;;;;1.00;1.00;;;;;16.90;100.00;101796.78;5044257;28;45368;-83
2022/07/05 01:48:41;;;;;;;;;2.67;2.67;;;;;16.87;100.00;101805.53;5058223;28;45348;-81
2022/07/05 01:51:18;;;;;;;;;4.00;3.33;;;;;16.85;100.00;101802.13;5075922;28;45478;-79
2022/07/05 01:53:44;;;;;;;;;3.00;1.67;;;;;16.72;100.00;101786.44;5045710;28;45766;-81
2022/07/05 01:56:10;;;;;;;;;7.00;3.00;;;;;16.81;100.00;101800.88;5058728;28;45419;-81
2022/07/05 01:58:35;;;;;;;;;2.33;2.33;;;;;16.77;100.00;101804.09;5049787;28;44847;-79
2022/07/05 02:01:01;;;;;;;;;7.33;2.00;;;;;16.73;100.00;101813.09;5048810;28;45368;-81
2022/07/05 02:03:27;;;;;;;;;3.00;3.00;;;;;16.71;100.00;101801.38;5064981;28;47071;-80
2022/07/05 02:05:53;;;;;;;;;1.00;1.00;;;;;16.55;100.00;101789.75;5067509;28;45213;-80
2022/07/05 02:08:19;;;;;;;;;3.33;2.33;;;;;16.62;100.00;101799.94;5045922;28;45281;-80
2022/07/05 02:10:45;;;;;;;;;1.67;1.00;;;;;16.54;100.00;101798.28;5036485;28;45382;-79
2022/07/05 02:13:11;;;;;;;;;3.33;1.00;;;;;16.53;100.00;101804.91;5045704;28;46089;-81
2022/07/05 02:15:40;;;;;;;;;5.00;3.33;;;;;16.50;100.00;101800.66;5026679;28;45400;-83
2022/07/05 02:18:06;;;;;;;;;2.33;2.00;;;;;16.50;100.00;101802.59;5043516;28;45492;-80
2022/07/05 02:20:33;;;;;;;;;1.33;1.33;;;;;16.44;100.00;101797.91;5042561;28;45623;-80
2022/07/05 02:22:59;;;;;;;;;3.67;2.67;;;;;16.27;100.00;101775.47;5044292;28;45579;-80
2022/07/05 02:25:24;;;;;;;;;3.00;2.00;;;;;16.37;100.00;101795.22;5078928;28;45355;-80
2022/07/05 02:27:51;;;;;;;;;1.67;1.67;;;;;16.40;100.00;101800.31;5077284;27;45341;-81
2022/07/05 02:30:17;;;;;;;;;1.00;1.00;;;;;16.28;100.00;101794.63;5043648;28;45564;-80
2022/07/05 02:32:42;;;;;;;;;2.00;2.00;;;;;16.35;100.00;101797.38;5059647;28;45569;-80
2022/07/05 02:35:09;;;;;;;;;4.33;2.00;;;;;16.34;100.00;101798.41;5055840;28;45255;-81
2022/07/05 02:37:35;;;;;;;;;1.00;1.00;;;;;16.15;100.00;101767.00;5043734;28;45418;-80
2022/07/05 02:40:01;;;;;;;;;2.00;1.00;;;;;16.30;100.00;101803.56;5061132;28;45651;-80
2022/07/05 02:42:27;;;;;;;;;3.33;3.00;;;;;16.28;100.00;101802.91;5031518;28;46995;-79
2022/07/05 02:44:52;;;;;;;;;3.33;3.00;;;;;16.17;100.00;101787.03;5067316;28;45792;-79
2022/07/05 02:47:17;;;;;;;;;1.67;1.67;;;;;16.22;100.00;101790.81;5013745;28;46449;-78
2022/07/05 02:49:43;;;;;;;;;3.00;3.00;;;;;16.24;100.00;101807.19;5048206;28;45278;-80
2022/07/05 02:52:09;;;;;;;;;3.00;2.00;;;;;16.16;100.00;101788.09;5048097;28;46144;-75
2022/07/05 02:54:34;;;;;;;;;6.33;2.67;;;;;16.16;100.00;101791.69;5036183;28;45467;-75
2022/07/05 02:57:00;;;;;;;;;3.00;2.00;;;;;16.18;100.00;101797.00;5057127;28;45436;-74
2022/07/05 02:59:26;;;;;;;;;2.00;2.00;;;;;16.16;100.00;101797.22;5059833;28;45513;-74
2022/07/05 03:01:52;;;;;;;;;2.33;2.33;;;;;16.15;100.00;101798.31;5021544;28;47336;-74
2022/07/05 03:04:18;;;;;;;;;5.33;3.33;;;;;16.14;100.00;101806.84;5040763;28;45493;-74
2022/07/05 03:06:43;;;;;;;;;3.67;2.00;;;;;16.09;100.00;101790.03;5054986;28;45334;-75
2022/07/05 03:09:08;;;;;;;;;2.67;2.67;;;;;16.10;100.00;101797.28;5042455;28;45352;-74
2022/07/05 03:11:34;;;;;;;;;4.67;3.33;;;;;15.91;100.00;101769.44;5068621;28;46160;-75
2022/07/05 03:14:00;;;;;;;;;4.00;4.00;;;;;16.12;100.00;101801.50;5045766;28;45507;-75
2022/07/05 03:16:25;;;;;;;;;4.67;4.67;;;;;16.10;100.00;101800.88;5057613;28;45403;-74
2022/07/05 03:18:51;;;;;;;;;2.33;2.33;;;;;16.11;100.00;101798.94;5033357;28;45542;-74
2022/07/05 03:21:17;;;;;;;;;4.00;4.00;;;;;16.08;100.00;101802.16;5055945;28;45501;-74
2022/07/05 03:23:42;;;;;;;;;3.00;3.00;;;;;16.04;100.00;101794.28;5036157;28;45751;-75
2022/07/05 03:26:08;;;;;;;;;5.33;5.33;;;;;16.03;100.00;101797.28;5062015;28;45439;-74
2022/07/05 03:28:33;;;;;;;;;4.00;4.00;;;;;15.98;100.00;101800.72;5038827;28;45904;-78
2022/07/05 03:30:59;;;;;;;;;6.33;4.00;;;;;15.93;100.00;101803.31;5028713;28;47550;-77
2022/07/05 03:33:24;;;;;;;;;3.67;3.67;;;;;15.90;100.00;101795.44;5076173;28;45367;-78
2022/07/05 03:35:50;;;;;;;;;4.67;3.67;;;;;15.96;100.00;101815.81;5066187;28;45370;-79
2022/07/05 03:38:16;;;;;;;;;4.67;3.00;;;;;15.87;100.00;101802.25;5049551;28;47142;-81
2022/07/05 03:40:41;;;;;;;;;6.00;4.00;;;;;15.60;100.00;101767.41;5053222;28;45416;-79
2022/07/05 03:43:07;;;;;;;;;3.67;2.67;;;;;15.89;100.00;101813.09;5040354;28;45850;-80
2022/07/05 03:45:32;;;;;;;;;5.00;4.00;;;;;15.84;100.00;101808.22;5047285;28;45323;-78
2022/07/05 03:47:59;;;;;;;;;3.67;3.67;;;;;15.89;100.00;101824.16;5044723;28;45845;-78
2022/07/05 03:50:25;;;;;;;;;3.33;3.00;;;;;15.88;100.00;101834.38;5046007;28;45403;-76
2022/07/05 03:52:50;;;;;;;;;4.00;4.00;;;;;15.84;100.00;101827.59;5059949;28;44813;-78
2022/07/05 03:55:16;;;;;;;;;4.00;3.00;;;;;15.83;100.00;101823.09;5059548;28;45378;-80
2022/07/05 03:57:41;;;;;;;;;3.67;3.67;;;;;15.93;100.00;101833.72;5047965;28;45820;-79
2022/07/05 04:00:08;;;;;;;;;3.33;3.00;;;;;15.93;100.00;101825.44;5038198;28;48050;-81
2022/07/05 04:02:33;;;;;;;;;4.67;3.00;;;;;16.03;100.00;101838.78;5062787;28;45389;-81
2022/07/05 04:04:59;;;;;;;;;4.00;3.67;;;;;16.17;100.00;101843.22;5053842;28;45373;-78
2022/07/05 04:07:24;;;;;;;;;5.00;2.67;;;;;16.34;100.00;101840.78;5051785;28;46012;-74
2022/07/05 04:09:50;;;;;;;;;5.00;4.00;;;;;16.57;100.00;101844.91;5038393;28;46323;-73
2022/07/05 04:12:15;;;;;;;;;7.33;3.00;;;;;16.86;100.00;101839.84;5056981;28;45492;-75
2022/07/05 04:14:41;;;;;;;;;3.00;3.00;;;;;17.09;100.00;101820.72;5050927;28;45386;-74
2022/07/05 04:17:06;;;;;;;;;4.00;3.00;;;;;17.54;100.00;101835.47;5027302;28;46316;-74
2022/07/05 04:19:32;;;;;;;;;7.00;7.00;;;;;17.86;100.00;101815.91;5034584;28;45383;-76
2022/07/05 04:21:57;;;;;;;;;6.00;4.00;;;;;18.33;100.00;101828.13;5047022;28;46291;-74
2022/07/05 04:24:23;;;;;;;;;2.33;2.33;;;;;18.77;100.00;101822.41;5046119;28;45439;-74
2022/07/05 04:26:48;;;;;;;;;4.00;3.00;;;;;19.24;100.00;101830.00;5029696;28;46175;-74
2022/07/05 04:29:14;;;;;;;;;4.00;2.67;;;;;19.73;100.00;101826.94;5053927;28;45638;-75
2022/07/05 04:31:39;;;;;;;;;4.00;4.00;;;;;20.26;100.00;101830.63;5030231;28;45512;-74
2022/07/05 04:34:05;;;;;;;;;13.00;10.67;;;;;20.75;100.00;101828.25;5045404;28;46630;-76
2022/07/05 04:36:30;;;;;;;;;10.00;8.00;;;;;21.20;100.00;101820.94;5042022;28;45421;-74
2022/07/05 04:38:56;;;;;;;;;3.00;3.00;;;;;21.64;100.00;101809.91;5044203;28;45590;-76
2022/07/05 04:41:21;;;;;;;;;8.33;7.00;;;;;22.03;100.00;101789.47;5039795;28;45421;-76
2022/07/05 04:43:47;;;;;;;;;3.00;3.00;;;;;22.68;100.00;101814.78;5046510;28;45455;-75
2022/07/05 04:46:12;;;;;;;;;8.33;8.33;;;;;22.98;100.00;101811.47;5038145;28;46152;-75
2022/07/05 04:48:38;;;;;;;;;3.33;2.33;;;;;23.20;100.00;101807.72;5057806;28;45807;-75
2022/07/05 04:51:03;;;;;;;;;3.00;2.00;;;;;23.61;100.00;101803.25;5047722;28;45372;-74
2022/07/05 04:53:28;;;;;;;;;2.00;2.00;;;;;24.02;100.00;101813.84;5047037;28;45380;-74
2022/07/05 04:55:54;;;;;;;;;4.00;2.00;;;;;24.71;100.00;101820.25;5053694;28;45562;-74
2022/07/05 04:58:19;;;;;;;;;6.00;4.67;;;;;25.34;100.00;101821.97;5042501;28;45640;-75
2022/07/05 05:00:45;;;;;;;;;4.00;3.00;;;;;25.92;100.00;101813.09;5053946;28;45379;-76
2022/07/05 05:03:10;;;;;;;;;4.00;2.33;;;;;25.98;100.00;101813.94;5044948;28;45771;-75
2022/07/05 05:05:36;;;;;;;;;2.67;2.67;;;;;26.29;100.00;101825.06;5053309;28;45433;-75
2022/07/05 05:08:01;;;;;;;;;5.00;4.00;;;;;27.05;100.00;101820.06;5061513;28;46109;-74
2022/07/05 05:10:26;;;;;;;;;4.00;4.00;;;;;27.76;97.57;101815.72;5039011;28;45360;-76
2022/07/05 05:12:52;;;;;;;;;6.33;4.00;;;;;28.04;92.77;101799.06;5051003;28;45366;-75
2022/07/05 05:15:17;;;;;;;;;4.33;3.33;;;;;28.69;88.15;101821.00;5050154;28;45345;-75
2022/07/05 05:17:43;;;;;;;;;2.67;2.33;;;;;29.17;83.25;101821.94;5050487;28;45608;-73
2022/07/05 05:20:14;;;;;;;;;4.67;4.00;;;;;29.69;82.04;101822.69;5040717;28;45470;-75
2022/07/05 05:22:40;;;;;;;;;4.33;3.33;;;;;30.27;76.10;101829.72;5043013;28;45344;-76
2022/07/05 05:25:06;;;;;;;;;3.00;3.00;;;;;30.84;70.20;101827.56;5049054;28;45652;-75
2022/07/05 05:27:32;;;;;;;;;1.67;1.67;;;;;31.31;68.22;101825.28;5050553;28;45368;-76
2022/07/05 05:29:59;;;;;;;;;3.25;2.25;;;;;31.85;64.04;101834.56;5029279;28;45531;-75
2022/07/05 05:32:25;;;;;;;;;1.67;1.67;;;;;32.33;59.44;101812.19;5048664;28;45419;-78
2022/07/05 05:34:53;;;;;;;;;2.00;2.00;;;;;32.89;55.36;101833.13;5043048;28;45505;-75
2022/07/05 05:37:22;;;;;;;;;3.33;2.00;;;;;33.44;52.85;101822.16;5049793;28;46174;-76
2022/07/05 05:39:51;;;;;;;;;6.33;3.67;;;;;34.01;49.20;101832.28;5056579;28;44828;-75
2022/07/05 05:42:16;;;;;;;;;3.67;3.67;;;;;34.34;46.87;101836.50;5047080;28;45347;-76
2022/07/05 05:44:42;;;;;;;;;4.67;4.67;;;;;34.55;45.18;101834.47;5051008;28;45316;-77
2022/07/05 05:47:07;;;;;;;;;5.33;3.33;;;;;34.73;44.25;101835.16;5044003;28;45390;-76
2022/07/05 05:49:33;;;;;;;;;1.67;1.67;;;;;34.88;42.88;101845.13;5056512;28;45512;-76
2022/07/05 05:51:58;;;;;;;;;3.33;3.33;;;;;35.12;42.04;101840.72;5053331;28;45451;-76
2022/07/05 05:54:24;;;;;;;;;4.00;4.00;;;;;35.48;41.23;101842.03;5052292;28;45320;-77
2022/07/05 05:56:49;;;;;;;;;4.00;3.75;;;;;36.14;39.89;101841.03;5048960;28;47225;-80
2022/07/05 05:59:15;;;;;;;;;3.00;3.00;;;;;36.81;38.19;101846.38;5055073;28;45343;-80
2022/07/05 06:01:40;;;;;;;;;2.75;2.75;;;;;37.35;36.04;101844.25;5044176;28;45368;-84
2022/07/05 06:04:06;;;;;;;;;3.00;3.00;;;;;37.78;34.59;101843.38;5061007;28;45358;-84
2022/07/05 06:06:31;;;;;;;;;5.00;4.00;;;;;38.29;32.95;101850.34;5052806;28;46080;-83
2022/07/05 06:08:57;;;;;;;;;7.33;4.67;;;;;38.67;32.32;101843.88;5055341;28;45359;-84
2022/07/05 06:11:24;;;;;;;;;4.33;3.00;;;;;39.13;31.30;101842.38;5067574;28;45427;-82
2022/07/05 06:13:49;;;;;;;;;4.00;3.33;;;;;39.36;30.03;101825.19;5059545;28;45850;-79
2022/07/05 06:16:15;;;;;;;;;5.00;5.00;;;;;39.58;29.65;101831.34;5031540;28;47007;-80
2022/07/05 06:18:43;;;;;;;;;5.75;4.50;;;;;40.05;29.24;101853.09;5047452;28;45383;-82
2022/07/05 06:21:09;;;;;;;;;3.50;3.25;;;;;40.30;28.48;101821.81;5045438;28;45407;-81
2022/07/05 06:23:34;;;;;;;;;5.00;5.00;;;;;40.89;27.91;101847.31;5048830;28;45426;-82
2022/07/05 06:26:01;;;;;;;;;9.00;6.67;;;;;41.34;27.01;101830.16;5046838;28;45617;-82
2022/07/05 06:28:38;;;;;;;;;5.33;4.33;;;;;41.64;26.55;101833.69;5061266;28;45955;-84
2022/07/05 06:31:04;;;;;;;;;3.67;3.67;;;;;42.14;26.09;101849.75;5044209;27;45450;-82
2022/07/05 06:33:29;;;;;;;;;7.00;4.00;;;;;42.52;25.20;101838.88;5036916;28;47393;-83
2022/07/05 06:35:55;;;;;;;;;5.00;3.67;;;;;42.93;24.04;101850.19;5027814;28;47091;-81
2022/07/05 06:38:31;;;;;;;;;7.00;5.00;;;;;43.34;24.47;101843.28;5039863;28;45386;-87
2022/07/05 06:41:02;;;;;;;;;5.00;5.00;;;;;43.76;23.44;101847.47;5047766;28;44816;-85
2022/07/05 06:43:27;;;;;;;;;8.00;8.00;;;;;44.01;22.99;101843.78;5040141;28;45479;-83
2022/07/05 06:46:13;;;;;;;;;6.33;5.00;;;;;44.47;23.13;101845.75;5042129;28;47268;-83
2022/07/05 06:48:39;;;;;;;;;6.00;4.00;;;;;45.02;22.12;101853.00;5025221;28;45444;-76
2022/07/05 06:51:05;;;;;;;;;4.00;4.00;;;;;45.36;21.37;101849.44;5057081;28;45506;-80
2022/07/05 06:53:30;;;;;;;;;6.33;4.67;;;;;45.63;20.90;101854.63;5070883;27;45566;-81
2022/07/05 06:56:02;;;;;;;;;4.00;4.00;;;;;46.07;21.01;101850.13;5038867;28;47870;-81
2022/07/05 06:58:27;;;;;;;;;5.00;4.00;;;;;46.42;20.21;101850.97;5054422;28;45415;-82
2022/07/05 07:00:53;;;;;;;;;3.33;3.33;;;;;46.63;20.33;101826.69;5054018;28;45628;-80
2022/07/05 07:03:21;;;;;;;;;6.00;5.00;;;;;47.03;19.11;101849.41;5042725;28;45569;-83
2022/07/05 07:05:47;;;;;;;;;4.00;4.00;;;;;47.24;19.47;101839.56;5043042;28;46723;-81
2022/07/05 07:10:56;;;;;;;;;5.00;4.00;;;;;48.00;18.58;101844.09;5050102;28;45570;-81
2022/07/05 07:13:22;;;;;;;;;6.00;3.00;;;;;48.10;18.88;101816.91;5050679;28;45469;-81
2022/07/05 07:15:48;;;;;;;;;6.67;5.33;;;;;48.66;18.21;101853.19;5050869;28;45955;-80
2022/07/05 07:18:14;;;;;;;;;4.67;4.67;;;;;48.90;17.49;101825.66;5055309;28;45566;-80
2022/07/05 07:20:39;;;;;;;;;5.00;5.00;;;;;49.19;17.55;101845.38;5055205;27;45575;-79
2022/07/05 07:23:05;;;;;;;;;6.00;4.33;;;;;49.43;17.25;101851.03;5040079;28;45333;-81
2022/07/05 07:25:31;;;;;;;;;5.67;5.33;;;;;49.70;17.33;101841.22;5048554;28;45444;-80
2022/07/05 07:27:59;;;;;;;;;8.00;6.67;;;;;49.93;16.87;101826.44;5052390;28;45511;-81
2022/07/05 07:30:27;;;;;;;;;5.33;5.33;;;;;50.14;16.21;101844.59;5061486;28;45858;-81
2022/07/05 07:32:53;;;;;;;;;5.33;5.33;;;;;50.39;15.94;101861.41;5038732;28;45788;-79
2022/07/05 07:35:19;;;;;;;;;7.00;4.00;;;;;50.74;16.18;101854.97;5041607;28;47082;-79
2022/07/05 07:37:45;;;;;;;;;3.00;3.00;;;;;50.94;15.76;101858.53;5037276;28;45538;-79
2022/07/05 07:40:12;;;;;;;;;4.00;4.00;;;;;51.01;15.97;101849.56;5047456;28;45509;-79
2022/07/05 07:42:37;;;;;;;;;5.00;5.00;;;;;51.17;15.78;101859.50;5037788;28;45723;-79
2022/07/05 07:45:04;;;;;;;;;7.00;5.00;;;;;51.16;15.99;101843.22;5042372;28;45578;-79
2022/07/05 07:47:33;;;;;;;;;6.67;4.33;;;;;51.51;14.95;101867.53;5048266;28;45807;-80
2022/07/05 07:49:59;;;;;;;;;5.00;3.33;;;;;51.50;15.11;101842.50;5048599;28;45616;-80
2022/07/05 07:52:25;;;;;;;;;6.00;4.00;;;;;51.76;14.75;101865.06;5057692;28;46656;-80
2022/07/05 07:54:51;;;;;;;;;4.67;4.33;;;;;52.04;14.75;101864.06;5056047;28;45756;-81
2022/07/05 07:57:16;;;;;;;;;3.00;3.00;;;;;52.36;14.67;101867.09;5056407;28;45304;-79
2022/07/05 07:59:42;;;;;;;;;4.00;3.67;;;;;52.46;14.81;101854.16;5041832;28;45710;-79
2022/07/05 08:02:07;;;;;;;;;5.00;4.00;;;;;52.73;14.00;101862.34;5039525;28;45415;-80
2022/07/05 08:04:33;;;;;;;;;4.00;3.67;;;;;53.11;13.74;101866.28;5026745;28;48042;-81
2022/07/05 08:06:59;;;;;;;;;3.67;3.67;;;;;53.36;13.55;101867.38;5044365;28;45557;-80
2022/07/05 08:09:24;;;;;;;;;4.33;4.33;;;;;53.41;13.66;101864.63;5021005;28;45431;-83
2022/07/05 08:11:50;;;;;;;;;2.67;2.67;;;;;53.33;13.60;101854.44;5047366;28;45833;-81
2022/07/05 08:14:17;;;;;;;;;3.00;3.00;;;;;53.38;13.89;101841.31;5040392;28;45827;-81
2022/07/05 08:16:43;;;;;;;;;3.33;2.00;;;;;53.21;13.77;101802.63;5051860;28;45886;-82
2022/07/05 08:21:54;;;;;;;;;24.33;22.67;;;;;53.59;13.79;101852.09;5047577;28;45394;-82
2022/07/05 08:24:19;;;;;;;;;5.67;5.00;;;;;53.65;14.01;101858.16;5019566;28;45463;-79
2022/07/05 08:26:45;;;;;;;;;3.67;3.67;;;;;53.49;13.31;101826.19;5051711;28;45513;-79
2022/07/05 08:29:12;;;;;;;;;5.00;5.00;;;;;53.84;13.02;101849.38;5054516;28;45388;-79
2022/07/05 08:31:43;;;;;;;;;6.00;5.00;;;;;53.92;13.25;101830.16;5038925;28;45570;-78
2022/07/05 08:34:09;;;;;;;;;5.33;3.33;;;;;54.40;13.34;101850.22;5023050;28;46626;-81
2022/07/05 08:36:35;;;;;;;;;3.33;3.33;;;;;54.55;13.19;101838.59;5047376;28;45531;-80
2022/07/05 08:39:02;;;;;;;;;4.33;4.33;;;;;54.72;13.07;101836.13;5054190;28;45363;-78
2022/07/05 08:41:29;;;;;;;;;4.67;4.67;;;;;54.87;12.87;101825.28;5050267;28;45763;-80
2022/07/05 08:43:57;;;;;;;;;3.00;3.00;;;;;55.20;12.65;101837.06;5041547;28;45531;-79
2022/07/05 08:46:25;;;;;;;;;4.33;4.33;;;;;55.50;12.20;101839.34;5037130;28;45369;-78
2022/07/05 08:48:51;;;;;;;;;3.33;3.00;;;;;55.31;12.48;101815.97;5036107;28;45372;-80
2022/07/05 08:51:23;;;;;;;;;4.67;3.67;;;;;55.70;12.19;101827.78;5051390;28;46028;-80
2022/07/05 08:53:51;;;;;;;;;7.00;4.00;;;;;55.73;12.33;101820.91;5057974;28;45876;-79
2022/07/05 08:56:17;;;;;;;;;7.67;3.67;;;;;56.01;11.79;101834.56;5038628;28;45491;-78
2022/07/05 08:58:43;;;;;;;;;4.00;3.67;;;;;56.29;11.67;101826.31;5042174;28;45442;-80
2022/07/05 09:01:10;;;;;;;;;2.00;2.00;;;;;56.75;11.77;101839.72;5047795;28;45474;-77
2022/07/05 09:03:43;;;;;;;;;2.67;2.67;;;;;56.89;11.17;101818.25;5026816;28;48283;-82
2022/07/05 09:06:11;;;;;;;;;3.00;3.00;;;;;57.06;10.59;101832.44;5022749;28;45874;-79
2022/07/05 09:08:39;;;;;;;;;1.00;1.00;;;;;56.69;10.90;101833.72;5032397;28;45784;-79
2022/07/05 09:11:10;;;;;;;;;2.33;2.00;;;;;56.82;10.83;101833.41;5034832;28;46526;-80
2022/07/05 09:13:42;;;;;;;;;4.67;3.33;;;;;56.99;10.89;101809.31;5043623;28;45438;-81
2022/07/05 09:16:08;;;;;;;;;3.00;2.00;;;;;57.27;11.41;101813.50;5035420;28;45442;-81
2022/07/05 09:18:48;;;;;;;;;3.67;2.00;;;;;57.34;11.46;101815.19;5043145;28;46100;-79
2022/07/05 09:21:24;;;;;;;;;2.00;2.00;;;;;57.24;10.85;101811.59;5030384;28;47030;-78
2022/07/05 09:24:07;;;;;;;;;2.67;2.67;;;;;57.56;11.25;101826.50;5037168;28;45317;-80
2022/07/05 09:26:38;;;;;;;;;2.33;2.00;;;;;57.44;10.72;101807.00;5048233;28;45411;-81
2022/07/05 09:29:08;;;;;;;;;4.00;2.67;;;;;56.77;10.40;101796.59;5036545;28;45895;-85
2022/07/05 09:31:41;;;;;;;;;2.33;2.33;;;;;57.12;10.95;101827.44;5038956;28;45476;-78
2022/07/05 09:34:11;;;;;;;;;2.00;2.00;;;;;57.50;11.08;101840.34;5031801;28;46583;-79
2022/07/05 09:37:03;;;;;;;;;1.00;1.00;;;;;57.80;10.04;101822.50;5043058;28;45526;-81
2022/07/05 09:39:29;;;;;;;;;2.00;2.00;;;;;58.03;9.38;101816.88;5029814;28;45490;-80
2022/07/05 09:42:19;;;;;;;;;1.33;1.33;;;;;57.82;10.15;101830.88;5035343;28;45441;-80
2022/07/05 09:44:51;;;;;;;;;1.00;1.00;;;;;57.95;10.46;101832.09;5033889;28;45830;-78
2022/07/05 09:47:18;;;;;;;;;1.33;1.33;;;;;57.72;10.41;101806.56;5041060;28;45443;-78
2022/07/05 09:49:45;;;;;;;;;2.67;2.00;;;;;57.94;10.06;101827.50;5034184;28;45801;-79
2022/07/05 09:52:35;;;;;;;;;1.67;1.33;;;;;57.89;10.23;101839.28;5035493;28;45761;-79
2022/07/05 09:55:09;;;;;;;;;1.33;1.33;;;;;57.94;10.03;101826.69;5038446;28;47855;-79
2022/07/05 09:57:40;;;;;;;;;1.67;1.67;;;;;57.97;9.68;101837.47;5044853;28;45952;-79
2022/07/05 10:00:06;;;;;;;;;4.00;3.00;;;;;58.05;9.79;101832.75;5031478;28;46554;-79
2022/07/05 10:02:35;;;;;;;;;1.00;1.00;;;;;58.04;9.84;101828.16;5027574;28;45734;-80
2022/07/05 10:05:16;;;;;;;;;0.67;0.67;;;;;58.13;10.13;101821.31;5040628;28;46164;-81
2022/07/05 10:07:48;;;;;;;;;1.00;0.00;;;;;57.98;9.86;101816.28;5014969;28;45597;-79
2022/07/05 10:10:18;;;;;;;;;2.00;1.00;;;;;57.96;9.18;101829.94;5045440;28;45487;-80
2022/07/05 10:12:46;;;;;;;;;0.00;0.00;;;;;58.04;9.37;101819.28;5052315;28;45532;-80
2022/07/05 10:15:16;;;;;;;;;0.67;0.67;;;;;57.69;10.08;101808.44;5046144;28;45656;-81
2022/07/05 10:17:47;;;;;;;;;0.00;0.00;;;;;57.65;9.54;101831.44;5030485;28;45820;-81
2022/07/05 10:20:41;;;;;;;;;1.00;1.00;;;;;57.76;10.07;101827.81;5038452;28;45723;-80
2022/07/05 10:23:12;;;;;;;;;1.67;1.67;;;;;57.69;10.00;101823.19;5034243;28;46246;-81
2022/07/05 10:25:40;;;;;;;;;1.00;1.00;;;;;57.69;10.09;101835.00;5035184;28;46348;-81
2022/07/05 10:28:08;;;;;;;;;1.00;1.00;;;;;57.22;9.19;101831.91;5032923;28;45811;-80
2022/07/05 10:30:38;;;;;;;;;1.00;0.33;;;;;56.80;10.09;101797.72;5038307;28;45486;-84
2022/07/05 10:33:14;;;;;;;;;1.00;1.00;;;;;57.05;9.44;101825.75;5047222;27;45819;-84
2022/07/05 10:35:42;;;;;;;;;1.67;1.67;;;;;57.05;9.67;101816.91;5023414;28;46989;-83
2022/07/05 10:38:10;;;;;;;;;0.33;0.33;;;;;57.00;9.53;101784.38;5049033;28;45495;-78
2022/07/05 10:40:36;;;;;;;;;2.33;2.00;;;;;57.08;9.15;101829.81;5032975;28;45729;-81
2022/07/05 10:43:03;;;;;;;;;1.00;1.00;;;;;57.00;9.67;101808.78;5030540;28;45651;-83
2022/07/05 10:45:29;;;;;;;;;1.00;0.67;;;;;56.76;9.91;101812.69;5041204;27;45938;-83
2022/07/05 10:48:16;;;;;;;;;1.00;1.00;;;;;56.54;9.34;101795.41;5030245;28;45815;-81
2022/07/05 10:50:49;;;;;;;;;2.33;1.67;;;;;56.44;9.49;101801.94;5041721;28;45645;-82
2022/07/05 10:53:17;;;;;;;;;4.67;4.67;;;;;56.08;9.62;101784.13;5018646;28;45685;-81
2022/07/05 10:55:50;;;;;;;;;1.00;1.00;;;;;55.85;9.74;101789.56;5034194;28;45880;-82
2022/07/05 10:58:16;;;;;;;;;1.67;1.67;;;;;55.86;10.11;101802.97;5028033;28;45842;-83
2022/07/05 11:00:41;;;;;;;;;3.00;3.00;;;;;55.62;10.05;101799.22;5045311;28;45615;-83
2022/07/05 11:03:35;;;;;;;;;2.00;2.00;;;;;55.19;10.15;101788.38;5042493;28;45587;-85
2022/07/05 11:06:04;;;;;;;;;1.33;1.33;;;;;54.92;10.42;101789.34;5041620;28;48568;-85
2022/07/05 11:08:32;;;;;;;;;2.67;1.00;;;;;54.44;11.19;101768.59;5044147;28;45588;-82
2022/07/05 11:11:27;;;;;;;;;1.00;1.00;;;;;53.86;11.37;101758.75;5038541;28;46044;-82
2022/07/05 11:13:58;;;;;;;;;3.00;3.00;;;;;53.58;11.50;101800.59;5025024;28;45905;-82
2022/07/05 11:16:26;;;;;;;;;2.00;2.00;;;;;53.08;11.09;101788.91;5041262;28;46576;-82
2022/07/05 11:19:06;;;;;;;;;1.67;1.67;;;;;52.57;11.73;101790.13;5018952;28;45899;-84
2022/07/05 11:21:33;;;;;;;;;2.00;2.00;;;;;51.81;11.78;101779.63;5028181;28;45934;-83
2022/07/05 11:24:20;;;;;;;;;3.00;2.00;;;;;50.62;12.16;101787.34;5039593;28;45589;-82
2022/07/05 11:26:48;;;;;;;;;2.33;2.33;;;;;49.40;13.49;101793.66;5023389;28;48391;-83
2022/07/05 11:29:51;;;;;;;;;1.00;1.00;;;;;47.80;14.09;101794.63;5026190;28;45468;-83